sensor_id;sensor_type;location;lat;lon;timestamp;temperature;humidity
20422;DHT22;10370;53.102;18.034;2023-05-15T00:03:11;14.50;99.90
20422;DHT22;10370;53.102;18.034;2023-05-15T00:08:34;14.50;99.90
20422;DHT22;10370;53.102;18.034;2023-05-15T00:13:57;14.60;99.90
20422;DHT22;10370;53.102;18.034;2023-05-15T00:19:21;14.60;99.90
20422;DHT22;10370;53.102;18.034;2023-05-15T00:24:44;14.60;99.90
20422;DHT22;10370;53.102;18.034;2023-05-15T00:30:07;14.80;99.90
20422;DHT22;10370;53.102;18.034;2023-05-15T00:35:30;14.80;99.90
20422;DHT22;10370;53.102;18.034;2023-05-15T00:40:56;14.80;99.90
20422;DHT22;10370;53.102;18.034;2023-05-15T00:46:19;14.90;99.90
20422;DHT22;10370;53.102;18.034;2023-05-15T00:51:43;15.00;99.90
20422;DHT22;10370;53.102;18.034;2023-05-15T00:57:07;15.00;99.90
20422;DHT22;10370;53.102;18.034;2023-05-15T01:02:30;15.00;99.90
20422;DHT22;10370;53.102;18.034;2023-05-15T01:07:58;15.10;99.90
20422;DHT22;10370;53.102;18.034;2023-05-15T01:13:21;15.10;99.90
20422;DHT22;10370;53.102;18.034;2023-05-15T01:18:44;15.20;99.90
20422;DHT22;10370;53.102;18.034;2023-05-15T01:24:32;15.10;99.90
20422;DHT22;10370;53.102;18.034;2023-05-15T01:30:27;15.10;99.90
20422;DHT22;10370;53.102;18.034;2023-05-15T01:46:51;15.50;99.90
20422;DHT22;10370;53.102;18.034;2023-05-15T01:52:23;15.60;99.90
20422;DHT22;10370;53.102;18.034;2023-05-15T01:57:49;15.60;99.90
20422;DHT22;10370;53.102;18.034;2023-05-15T02:03:14;15.60;99.90
20422;DHT22;10370;53.102;18.034;2023-05-15T02:08:37;15.50;99.90
20422;DHT22;10370;53.102;18.034;2023-05-15T02:14:01;15.40;99.90
20422;DHT22;10370;53.102;18.034;2023-05-15T02:19:24;15.30;99.90
20422;DHT22;10370;53.102;18.034;2023-05-15T02:24:47;15.10;99.90
20422;DHT22;10370;53.102;18.034;2023-05-15T02:35:49;14.70;99.90
20422;DHT22;10370;53.102;18.034;2023-05-15T02:41:12;14.50;99.90
20422;DHT22;10370;53.102;18.034;2023-05-15T02:46:38;14.60;99.90
20422;DHT22;10370;53.102;18.034;2023-05-15T02:52:00;14.60;99.90
20422;DHT22;10370;53.102;18.034;2023-05-15T02:57:23;14.70;99.90
20422;DHT22;10370;53.102;18.034;2023-05-15T03:02:47;14.60;99.90
20422;DHT22;10370;53.102;18.034;2023-05-15T03:08:11;14.50;99.90
20422;DHT22;10370;53.102;18.034;2023-05-15T03:13:34;14.50;99.90
20422;DHT22;10370;53.102;18.034;2023-05-15T03:18:56;14.40;99.90
20422;DHT22;10370;53.102;18.034;2023-05-15T03:24:21;14.50;99.90
20422;DHT22;10370;53.102;18.034;2023-05-15T03:29:43;14.50;99.90
20422;DHT22;10370;53.102;18.034;2023-05-15T03:35:05;14.50;99.90
20422;DHT22;10370;53.102;18.034;2023-05-15T03:40:30;14.60;99.90
20422;DHT22;10370;53.102;18.034;2023-05-15T03:45:57;14.50;99.90
20422;DHT22;10370;53.102;18.034;2023-05-15T03:51:23;14.40;99.90
20422;DHT22;10370;53.102;18.034;2023-05-15T03:56:46;14.50;99.90
20422;DHT22;10370;53.102;18.034;2023-05-15T04:02:07;14.40;99.90
20422;DHT22;10370;53.102;18.034;2023-05-15T04:07:28;14.40;99.90
20422;DHT22;10370;53.102;18.034;2023-05-15T04:12:52;14.50;99.90
20422;DHT22;10370;53.102;18.034;2023-05-15T04:18:15;14.50;99.90
20422;DHT22;10370;53.102;18.034;2023-05-15T04:23:37;14.50;99.90
20422;DHT22;10370;53.102;18.034;2023-05-15T04:29:03;14.40;99.90
20422;DHT22;10370;53.102;18.034;2023-05-15T04:34:26;14.50;99.90
20422;DHT22;10370;53.102;18.034;2023-05-15T04:39:51;14.50;99.90
20422;DHT22;10370;53.102;18.034;2023-05-15T04:45:14;14.50;99.90
20422;DHT22;10370;53.102;18.034;2023-05-15T04:50:37;14.50;99.90
20422;DHT22;10370;53.102;18.034;2023-05-15T04:56:03;14.40;99.90
20422;DHT22;10370;53.102;18.034;2023-05-15T05:01:24;14.40;99.90
20422;DHT22;10370;53.102;18.034;2023-05-15T05:06:46;14.40;99.90
20422;DHT22;10370;53.102;18.034;2023-05-15T05:12:08;14.40;99.90
20422;DHT22;10370;53.102;18.034;2023-05-15T05:17:29;14.40;99.90
20422;DHT22;10370;53.102;18.034;2023-05-15T05:22:51;14.40;99.90
20422;DHT22;10370;53.102;18.034;2023-05-15T05:28:14;14.40;99.90
20422;DHT22;10370;53.102;18.034;2023-05-15T05:33:38;14.50;99.90
20422;DHT22;10370;53.102;18.034;2023-05-15T05:39:02;14.40;99.90
20422;DHT22;10370;53.102;18.034;2023-05-15T05:44:26;14.40;99.90
20422;DHT22;10370;53.102;18.034;2023-05-15T05:49:47;14.20;99.90
20422;DHT22;10370;53.102;18.034;2023-05-15T05:55:08;14.00;99.90
20422;DHT22;10370;53.102;18.034;2023-05-15T06:00:35;13.90;99.90
20422;DHT22;10370;53.102;18.034;2023-05-15T06:05:56;13.80;99.90
20422;DHT22;10370;53.102;18.034;2023-05-15T06:11:17;13.80;99.90
20422;DHT22;10370;53.102;18.034;2023-05-15T06:16:38;13.80;99.90
20422;DHT22;10370;53.102;18.034;2023-05-15T06:22:01;13.60;99.90
20422;DHT22;10370;53.102;18.034;2023-05-15T06:27:24;13.50;99.90
20422;DHT22;10370;53.102;18.034;2023-05-15T06:32:49;13.60;99.90
20422;DHT22;10370;53.102;18.034;2023-05-15T06:38:11;13.50;99.90
20422;DHT22;10370;53.102;18.034;2023-05-15T06:43:32;13.50;99.90
20422;DHT22;10370;53.102;18.034;2023-05-15T06:48:57;13.60;99.90
20422;DHT22;10370;53.102;18.034;2023-05-15T06:54:18;13.50;99.90
20422;DHT22;10370;53.102;18.034;2023-05-15T06:59:39;13.60;99.90
20422;DHT22;10370;53.102;18.034;2023-05-15T07:05:03;13.50;99.90
20422;DHT22;10370;53.102;18.034;2023-05-15T07:10:24;13.50;99.90
20422;DHT22;10370;53.102;18.034;2023-05-15T07:15:46;13.40;99.90
20422;DHT22;10370;53.102;18.034;2023-05-15T07:21:09;13.40;99.90
20422;DHT22;10370;53.102;18.034;2023-05-15T07:26:31;13.30;99.90
20422;DHT22;10370;53.102;18.034;2023-05-15T07:32:02;13.40;99.90
20422;DHT22;10370;53.102;18.034;2023-05-15T07:37:26;13.30;99.90
20422;DHT22;10370;53.102;18.034;2023-05-15T07:42:47;13.60;99.90
20422;DHT22;10370;53.102;18.034;2023-05-15T07:48:16;13.60;99.90
20422;DHT22;10370;53.102;18.034;2023-05-15T07:53:39;13.70;99.90
20422;DHT22;10370;53.102;18.034;2023-05-15T07:59:03;13.90;99.90
20422;DHT22;10370;53.102;18.034;2023-05-15T08:04:32;13.90;99.90
20422;DHT22;10370;53.102;18.034;2023-05-15T08:10:05;14.10;99.90
20422;DHT22;10370;53.102;18.034;2023-05-15T08:15:30;14.10;99.90
20422;DHT22;10370;53.102;18.034;2023-05-15T08:20:55;14.20;99.90
20422;DHT22;10370;53.102;18.034;2023-05-15T08:26:19;14.30;99.90
20422;DHT22;10370;53.102;18.034;2023-05-15T08:31:40;14.40;99.90
20422;DHT22;10370;53.102;18.034;2023-05-15T08:37:04;14.50;99.90
20422;DHT22;10370;53.102;18.034;2023-05-15T08:42:47;14.50;99.90
20422;DHT22;10370;53.102;18.034;2023-05-15T08:48:12;14.60;99.90
20422;DHT22;10370;53.102;18.034;2023-05-15T08:53:33;14.70;99.90
20422;DHT22;10370;53.102;18.034;2023-05-15T08:58:58;14.80;99.90
20422;DHT22;10370;53.102;18.034;2023-05-15T09:04:21;14.90;99.90
20422;DHT22;10370;53.102;18.034;2023-05-15T09:09:44;15.20;99.90
20422;DHT22;10370;53.102;18.034;2023-05-15T09:15:12;15.10;99.90
20422;DHT22;10370;53.102;18.034;2023-05-15T09:20:35;15.10;99.90
20422;DHT22;10370;53.102;18.034;2023-05-15T09:25:57;15.00;99.90
20422;DHT22;10370;53.102;18.034;2023-05-15T09:31:20;15.00;99.90
20422;DHT22;10370;53.102;18.034;2023-05-15T09:36:45;14.90;99.90
20422;DHT22;10370;53.102;18.034;2023-05-15T09:42:12;14.30;99.90
20422;DHT22;10370;53.102;18.034;2023-05-15T09:47:35;14.10;99.90
20422;DHT22;10370;53.102;18.034;2023-05-15T09:52:59;14.10;99.90
20422;DHT22;10370;53.102;18.034;2023-05-15T09:58:19;14.00;99.90
20422;DHT22;10370;53.102;18.034;2023-05-15T10:03:40;13.70;99.90
20422;DHT22;10370;53.102;18.034;2023-05-15T10:09:03;13.90;99.90
20422;DHT22;10370;53.102;18.034;2023-05-15T10:14:31;14.10;99.90
20422;DHT22;10370;53.102;18.034;2023-05-15T10:19:58;14.10;99.90
20422;DHT22;10370;53.102;18.034;2023-05-15T10:30:51;14.10;99.90
20422;DHT22;10370;53.102;18.034;2023-05-15T10:36:14;14.10;99.90
20422;DHT22;10370;53.102;18.034;2023-05-15T10:41:39;14.20;99.90
20422;DHT22;10370;53.102;18.034;2023-05-15T10:47:02;13.90;99.90
20422;DHT22;10370;53.102;18.034;2023-05-15T10:52:26;13.70;99.90
20422;DHT22;10370;53.102;18.034;2023-05-15T10:57:49;13.80;99.90
20422;DHT22;10370;53.102;18.034;2023-05-15T11:03:15;13.50;99.90
20422;DHT22;10370;53.102;18.034;2023-05-15T11:20:19;13.60;99.90
20422;DHT22;10370;53.102;18.034;2023-05-15T11:25:40;13.40;99.90
20422;DHT22;10370;53.102;18.034;2023-05-15T11:31:05;13.40;99.90
20422;DHT22;10370;53.102;18.034;2023-05-15T11:36:27;13.40;99.90
20422;DHT22;10370;53.102;18.034;2023-05-15T11:41:49;13.40;99.90
20422;DHT22;10370;53.102;18.034;2023-05-15T11:47:12;13.30;99.90
20422;DHT22;10370;53.102;18.034;2023-05-15T11:52:33;13.20;99.90
20422;DHT22;10370;53.102;18.034;2023-05-15T11:57:57;13.20;99.90
20422;DHT22;10370;53.102;18.034;2023-05-15T12:03:25;13.00;99.90
20422;DHT22;10370;53.102;18.034;2023-05-15T12:08:52;13.20;99.90
20422;DHT22;10370;53.102;18.034;2023-05-15T12:14:15;13.30;99.90
20422;DHT22;10370;53.102;18.034;2023-05-15T12:19:38;13.40;99.90
20422;DHT22;10370;53.102;18.034;2023-05-15T12:25:04;13.30;99.90
20422;DHT22;10370;53.102;18.034;2023-05-15T12:30:27;13.40;99.90
20422;DHT22;10370;53.102;18.034;2023-05-15T12:35:56;13.40;99.90
20422;DHT22;10370;53.102;18.034;2023-05-15T12:41:28;13.50;99.90
20422;DHT22;10370;53.102;18.034;2023-05-15T12:46:54;13.40;99.90
20422;DHT22;10370;53.102;18.034;2023-05-15T12:52:17;13.50;99.90
20422;DHT22;10370;53.102;18.034;2023-05-15T12:57:40;13.40;99.90
20422;DHT22;10370;53.102;18.034;2023-05-15T13:03:07;13.50;99.90
20422;DHT22;10370;53.102;18.034;2023-05-15T13:08:29;13.50;99.90
20422;DHT22;10370;53.102;18.034;2023-05-15T13:13:52;13.50;99.90
20422;DHT22;10370;53.102;18.034;2023-05-15T13:19:15;13.60;99.90
20422;DHT22;10370;53.102;18.034;2023-05-15T13:24:39;13.60;99.90
20422;DHT22;10370;53.102;18.034;2023-05-15T13:30:00;13.50;99.90
20422;DHT22;10370;53.102;18.034;2023-05-15T13:35:23;13.60;99.90
20422;DHT22;10370;53.102;18.034;2023-05-15T13:40:46;13.60;99.90
20422;DHT22;10370;53.102;18.034;2023-05-15T13:46:09;13.50;99.90
20422;DHT22;10370;53.102;18.034;2023-05-15T13:51:32;13.50;99.90
20422;DHT22;10370;53.102;18.034;2023-05-15T13:56:53;13.40;99.90
20422;DHT22;10370;53.102;18.034;2023-05-15T14:02:17;13.40;99.90
20422;DHT22;10370;53.102;18.034;2023-05-15T14:07:40;13.40;99.90
20422;DHT22;10370;53.102;18.034;2023-05-15T14:13:03;13.50;99.90
20422;DHT22;10370;53.102;18.034;2023-05-15T14:18:26;13.40;99.90
20422;DHT22;10370;53.102;18.034;2023-05-15T14:23:51;13.50;99.90
20422;DHT22;10370;53.102;18.034;2023-05-15T14:29:14;13.50;99.90
20422;DHT22;10370;53.102;18.034;2023-05-15T14:34:37;13.60;99.90
20422;DHT22;10370;53.102;18.034;2023-05-15T14:40:03;13.60;99.90
20422;DHT22;10370;53.102;18.034;2023-05-15T14:45:26;13.60;99.90
20422;DHT22;10370;53.102;18.034;2023-05-15T14:50:51;13.60;99.90
20422;DHT22;10370;53.102;18.034;2023-05-15T14:56:17;13.60;99.90
20422;DHT22;10370;53.102;18.034;2023-05-15T15:01:40;13.70;99.90
20422;DHT22;10370;53.102;18.034;2023-05-15T15:07:08;13.70;99.90
20422;DHT22;10370;53.102;18.034;2023-05-15T15:12:35;13.80;99.90
20422;DHT22;10370;53.102;18.034;2023-05-15T15:18:01;13.90;99.90
20422;DHT22;10370;53.102;18.034;2023-05-15T15:23:25;14.00;99.90
20422;DHT22;10370;53.102;18.034;2023-05-15T15:28:47;14.00;99.90
20422;DHT22;10370;53.102;18.034;2023-05-15T15:34:12;14.10;99.90
20422;DHT22;10370;53.102;18.034;2023-05-15T15:39:36;14.00;99.90
20422;DHT22;10370;53.102;18.034;2023-05-15T15:45:02;14.00;99.90
20422;DHT22;10370;53.102;18.034;2023-05-15T15:50:24;14.00;99.90
20422;DHT22;10370;53.102;18.034;2023-05-15T15:55:48;14.00;99.90
20422;DHT22;10370;53.102;18.034;2023-05-15T16:01:12;13.90;99.90
20422;DHT22;10370;53.102;18.034;2023-05-15T16:06:34;14.00;99.90
20422;DHT22;10370;53.102;18.034;2023-05-15T16:11:58;14.10;99.90
20422;DHT22;10370;53.102;18.034;2023-05-15T16:17:21;14.10;99.90
20422;DHT22;10370;53.102;18.034;2023-05-15T16:22:45;14.10;99.90
20422;DHT22;10370;53.102;18.034;2023-05-15T16:28:09;14.00;99.90
20422;DHT22;10370;53.102;18.034;2023-05-15T16:33:30;14.10;99.90
20422;DHT22;10370;53.102;18.034;2023-05-15T16:38:53;14.10;99.90
20422;DHT22;10370;53.102;18.034;2023-05-15T16:44:16;14.20;99.90
20422;DHT22;10370;53.102;18.034;2023-05-15T16:49:42;14.30;99.90
20422;DHT22;10370;53.102;18.034;2023-05-15T16:55:05;14.30;99.90
20422;DHT22;10370;53.102;18.034;2023-05-15T17:00:29;14.30;99.90
20422;DHT22;10370;53.102;18.034;2023-05-15T17:05:52;14.30;99.90
20422;DHT22;10370;53.102;18.034;2023-05-15T17:11:18;14.30;99.90
20422;DHT22;10370;53.102;18.034;2023-05-15T17:16:42;14.30;99.90
20422;DHT22;10370;53.102;18.034;2023-05-15T17:22:07;14.20;99.90
20422;DHT22;10370;53.102;18.034;2023-05-15T17:27:33;14.20;99.90
20422;DHT22;10370;53.102;18.034;2023-05-15T17:32:56;14.10;99.90
20422;DHT22;10370;53.102;18.034;2023-05-15T17:38:22;14.10;99.90
20422;DHT22;10370;53.102;18.034;2023-05-15T17:43:44;14.10;99.90
20422;DHT22;10370;53.102;18.034;2023-05-15T17:49:06;14.10;99.90
20422;DHT22;10370;53.102;18.034;2023-05-15T17:54:29;14.10;99.90
20422;DHT22;10370;53.102;18.034;2023-05-15T17:59:55;14.10;99.90
20422;DHT22;10370;53.102;18.034;2023-05-15T18:05:17;14.10;99.90
20422;DHT22;10370;53.102;18.034;2023-05-15T18:10:43;14.00;99.90
20422;DHT22;10370;53.102;18.034;2023-05-15T18:16:07;13.90;99.90
20422;DHT22;10370;53.102;18.034;2023-05-15T18:21:31;13.80;99.90
20422;DHT22;10370;53.102;18.034;2023-05-15T18:26:54;13.80;99.90
20422;DHT22;10370;53.102;18.034;2023-05-15T18:32:18;13.80;99.90
20422;DHT22;10370;53.102;18.034;2023-05-15T18:37:47;13.90;99.90
20422;DHT22;10370;53.102;18.034;2023-05-15T18:43:09;13.80;99.90
20422;DHT22;10370;53.102;18.034;2023-05-15T18:48:33;13.80;99.90
20422;DHT22;10370;53.102;18.034;2023-05-15T18:53:56;13.80;99.90
20422;DHT22;10370;53.102;18.034;2023-05-15T18:59:19;13.80;99.90
20422;DHT22;10370;53.102;18.034;2023-05-15T19:04:44;13.80;99.90
20422;DHT22;10370;53.102;18.034;2023-05-15T19:10:07;13.80;99.90
20422;DHT22;10370;53.102;18.034;2023-05-15T19:15:33;13.80;99.90
20422;DHT22;10370;53.102;18.034;2023-05-15T19:20:58;13.80;99.90
20422;DHT22;10370;53.102;18.034;2023-05-15T19:26:22;13.80;99.90
20422;DHT22;10370;53.102;18.034;2023-05-15T19:31:47;13.70;99.90
20422;DHT22;10370;53.102;18.034;2023-05-15T19:37:12;13.70;99.90
20422;DHT22;10370;53.102;18.034;2023-05-15T19:42:36;13.70;99.90
20422;DHT22;10370;53.102;18.034;2023-05-15T19:48:00;13.70;99.90
20422;DHT22;10370;53.102;18.034;2023-05-15T19:53:25;13.70;99.90
20422;DHT22;10370;53.102;18.034;2023-05-15T19:58:50;13.80;99.90
20422;DHT22;10370;53.102;18.034;2023-05-15T20:04:14;13.80;99.90
20422;DHT22;10370;53.102;18.034;2023-05-15T20:09:36;13.80;99.90
20422;DHT22;10370;53.102;18.034;2023-05-15T20:14:59;13.70;99.90
20422;DHT22;10370;53.102;18.034;2023-05-15T20:20:26;13.60;99.90
20422;DHT22;10370;53.102;18.034;2023-05-15T20:26:25;13.40;99.90
20422;DHT22;10370;53.102;18.034;2023-05-15T20:31:48;13.30;99.90
20422;DHT22;10370;53.102;18.034;2023-05-15T20:37:10;13.20;99.90
20422;DHT22;10370;53.102;18.034;2023-05-15T20:42:33;13.10;99.90
20422;DHT22;10370;53.102;18.034;2023-05-15T20:47:54;13.10;99.90
20422;DHT22;10370;53.102;18.034;2023-05-15T20:53:16;13.10;99.90
20422;DHT22;10370;53.102;18.034;2023-05-15T20:58:39;13.10;99.90
20422;DHT22;10370;53.102;18.034;2023-05-15T21:04:05;13.20;99.90
20422;DHT22;10370;53.102;18.034;2023-05-15T21:09:29;13.20;99.90
20422;DHT22;10370;53.102;18.034;2023-05-15T21:14:53;13.10;99.90
20422;DHT22;10370;53.102;18.034;2023-05-15T21:20:16;13.10;99.90
20422;DHT22;10370;53.102;18.034;2023-05-15T21:25:38;13.10;99.90
20422;DHT22;10370;53.102;18.034;2023-05-15T21:31:09;13.10;99.90
20422;DHT22;10370;53.102;18.034;2023-05-15T21:36:33;13.00;99.90
20422;DHT22;10370;53.102;18.034;2023-05-15T21:41:56;13.00;99.90
20422;DHT22;10370;53.102;18.034;2023-05-15T21:47:20;12.90;99.90
20422;DHT22;10370;53.102;18.034;2023-05-15T21:52:46;12.90;99.90
20422;DHT22;10370;53.102;18.034;2023-05-15T21:58:12;12.80;99.90
20422;DHT22;10370;53.102;18.034;2023-05-15T22:03:36;12.80;99.90
20422;DHT22;10370;53.102;18.034;2023-05-15T22:08:59;12.80;99.90
20422;DHT22;10370;53.102;18.034;2023-05-15T22:14:24;12.80;99.90
20422;DHT22;10370;53.102;18.034;2023-05-15T22:19:47;12.80;99.90
20422;DHT22;10370;53.102;18.034;2023-05-15T22:25:12;12.90;99.90
20422;DHT22;10370;53.102;18.034;2023-05-15T22:30:35;12.90;99.90
20422;DHT22;10370;53.102;18.034;2023-05-15T22:35:58;12.90;99.90
20422;DHT22;10370;53.102;18.034;2023-05-15T22:41:21;12.90;99.90
20422;DHT22;10370;53.102;18.034;2023-05-15T22:46:47;12.90;99.90
20422;DHT22;10370;53.102;18.034;2023-05-15T22:52:10;12.80;99.90
20422;DHT22;10370;53.102;18.034;2023-05-15T22:57:34;12.70;99.90
20422;DHT22;10370;53.102;18.034;2023-05-15T23:02:57;12.70;99.90
20422;DHT22;10370;53.102;18.034;2023-05-15T23:08:20;12.70;99.90
20422;DHT22;10370;53.102;18.034;2023-05-15T23:13:43;12.70;99.90
20422;DHT22;10370;53.102;18.034;2023-05-15T23:19:07;12.70;99.90
20422;DHT22;10370;53.102;18.034;2023-05-15T23:24:32;12.70;99.90
20422;DHT22;10370;53.102;18.034;2023-05-15T23:43:05;12.60;99.90
20422;DHT22;10370;53.102;18.034;2023-05-15T23:48:28;12.60;99.90
20422;DHT22;10370;53.102;18.034;2023-05-15T23:53:53;12.60;99.90
20422;DHT22;10370;53.102;18.034;2023-05-15T23:59:16;12.60;99.90
